createdAt,value
2019-05-02T00:01:38.184Z,51.95
2019-05-02T00:04:06.962Z,54.40
2019-05-02T00:06:38.171Z,50.88
2019-05-02T00:09:11.178Z,52.23
2019-05-02T00:11:40.215Z,48.28
2019-05-02T00:14:11.096Z,50.17
2019-05-02T00:16:45.055Z,47.45
2019-05-02T00:19:13.959Z,48.78
2019-05-02T00:21:43.067Z,48.40
2019-05-02T00:24:13.159Z,48.13
2019-05-02T00:26:41.676Z,48.40
2019-05-02T00:29:11.277Z,46.60
2019-05-02T00:31:41.830Z,44.30
2019-05-02T00:34:11.080Z,44.98
2019-05-02T00:36:39.549Z,45.58
2019-05-02T00:39:09.633Z,41.48
2019-05-02T00:41:40.450Z,43.95
2019-05-02T00:44:11.033Z,44.13
2019-05-02T00:46:39.514Z,42.95
2019-05-02T00:49:08.367Z,42.83
2019-05-02T00:51:39.772Z,43.30
2019-05-02T00:54:08.208Z,41.53
2019-05-02T00:56:40.186Z,42.98
2019-05-02T00:59:07.531Z,42.13
2019-05-02T01:01:41.313Z,42.67
2019-05-02T01:04:17.995Z,42.65
2019-05-02T01:06:49.400Z,42.15
2019-05-02T01:09:17.648Z,41.92
2019-05-02T01:11:46.444Z,42.93
2019-05-02T01:14:16.048Z,42.10
2019-05-02T01:16:49.432Z,41.45
2019-05-02T01:19:17.241Z,41.13
2019-05-02T01:21:46.788Z,40.75
2019-05-02T01:24:15.512Z,42.20
2019-05-02T01:26:45.584Z,40.35
2019-05-02T01:29:15.960Z,40.48
2019-05-02T01:31:49.970Z,39.53
2019-05-02T01:34:23.984Z,38.17
2019-05-02T01:36:56.500Z,38.35
2019-05-02T01:39:26.194Z,38.45
2019-05-02T01:41:55.528Z,34.92
2019-05-02T01:44:25.968Z,35.13
2019-05-02T01:46:58.779Z,34.45
2019-05-02T01:49:25.490Z,35.55
2019-05-02T01:51:54.236Z,35.08
2019-05-02T01:54:22.673Z,35.17
2019-05-02T01:56:51.103Z,34.98
2019-05-02T01:59:21.740Z,35.40
2019-05-02T02:01:53.272Z,32.75
2019-05-02T02:04:22.135Z,34.33
2019-05-02T02:06:50.800Z,33.60
2019-05-02T02:09:20.484Z,33.33
2019-05-02T02:11:48.919Z,33.83
2019-05-02T02:14:18.776Z,33.40
2019-05-02T02:16:48.090Z,32.95
2019-05-02T02:19:18.163Z,32.23
2019-05-02T02:21:57.495Z,31.30
2019-05-02T02:24:34.736Z,31.90
2019-05-02T02:27:03.522Z,29.00
2019-05-02T02:29:31.947Z,29.00
2019-05-02T02:32:00.392Z,28.73
2019-05-02T02:34:32.011Z,29.02
2019-05-02T02:36:58.992Z,28.50
2019-05-02T02:39:27.422Z,27.42
2019-05-02T02:41:57.201Z,29.42
2019-05-02T02:44:39.852Z,28.80
2019-05-02T02:47:12.233Z,29.32
2019-05-02T02:49:37.299Z,29.42
2019-05-02T02:52:06.935Z,28.87
2019-05-02T02:54:36.499Z,28.60
2019-05-02T02:57:05.934Z,30.48
2019-05-02T02:59:35.529Z,31.60
2019-05-02T03:02:10.183Z,30.32
2019-05-02T03:04:34.644Z,31.52
2019-05-02T03:07:03.079Z,31.77
2019-05-02T03:09:33.423Z,32.50
2019-05-02T03:12:21.513Z,29.87
2019-05-02T03:14:51.601Z,31.42
2019-05-02T03:17:25.790Z,31.00
2019-05-02T03:19:54.219Z,31.02
2019-05-02T03:22:20.961Z,30.85
2019-05-02T03:24:50.312Z,31.25
2019-05-02T03:27:19.061Z,31.07
2019-05-02T03:29:47.749Z,31.65
2019-05-02T03:32:31.651Z,30.97
2019-05-02T03:34:53.146Z,30.55
2019-05-02T03:37:17.820Z,31.07
2019-05-02T03:39:49.461Z,30.72
2019-05-02T03:42:17.476Z,31.07
2019-05-02T03:44:54.658Z,32.20
2019-05-02T03:47:16.461Z,30.88
2019-05-02T03:49:49.418Z,29.42
2019-05-02T03:52:24.105Z,32.38
2019-05-02T03:54:52.964Z,31.77
2019-05-02T03:57:32.175Z,31.73
2019-05-02T03:59:54.084Z,31.45
2019-05-02T04:02:22.783Z,32.20
2019-05-02T04:04:54.440Z,33.85
2019-05-02T04:07:22.043Z,33.53
2019-05-02T04:09:51.164Z,33.80
2019-05-02T04:12:21.890Z,34.03
2019-05-02T04:14:55.280Z,33.70
2019-05-02T04:17:21.300Z,35.83
2019-05-02T04:19:50.226Z,36.55
2019-05-02T04:22:19.921Z,37.73
2019-05-02T04:24:54.422Z,38.10
2019-05-02T04:27:20.868Z,39.20
2019-05-02T04:29:49.311Z,40.05
2019-05-02T04:32:17.793Z,40.52
2019-05-02T04:34:49.128Z,39.25
2019-05-02T04:37:17.360Z,39.25
2019-05-02T04:39:49.131Z,41.30
2019-05-02T04:42:22.097Z,41.23
2019-05-02T04:45:11.629Z,39.60
2019-05-02T04:47:21.951Z,41.60
2019-05-02T04:49:51.518Z,39.65
2019-05-02T04:52:21.024Z,39.50
2019-05-02T04:54:50.931Z,40.73
2019-05-02T04:57:19.685Z,41.60
2019-05-02T04:59:50.566Z,41.15
2019-05-02T05:02:20.942Z,40.05
2019-05-02T05:04:49.641Z,39.95
2019-05-02T05:07:18.445Z,40.12
2019-05-02T05:09:50.015Z,40.88
2019-05-02T05:12:19.290Z,40.63
2019-05-02T05:14:48.713Z,40.15
2019-05-02T05:17:19.741Z,39.75
2019-05-02T05:19:48.746Z,42.30
2019-05-02T05:22:18.666Z,39.92
2019-05-02T05:24:49.851Z,40.67
2019-05-02T05:27:22.648Z,39.30
2019-05-02T05:29:53.204Z,41.30
2019-05-02T05:32:19.256Z,39.38
2019-05-02T05:34:47.864Z,38.90
2019-05-02T05:37:19.597Z,41.58
2019-05-02T05:39:52.164Z,39.48
2019-05-02T05:42:23.166Z,38.60
2019-05-02T05:44:49.513Z,40.90
2019-05-02T05:47:21.262Z,39.10
2019-05-02T05:49:52.156Z,40.23
2019-05-02T05:52:18.925Z,39.73
2019-05-02T05:54:48.522Z,40.30
2019-05-02T05:57:20.948Z,42.95
2019-05-02T05:59:48.438Z,43.85
2019-05-02T06:02:18.394Z,42.67
2019-05-02T06:04:47.372Z,44.23
2019-05-02T06:07:17.636Z,45.58
2019-05-02T06:09:47.455Z,43.87
2019-05-02T06:12:16.861Z,42.38
2019-05-02T06:14:46.487Z,45.20
2019-05-02T06:17:15.383Z,46.02
2019-05-02T06:19:48.402Z,42.83
2019-05-02T06:22:16.586Z,46.73
2019-05-02T06:24:46.198Z,45.00
2019-05-02T06:27:15.304Z,45.85
2019-05-02T06:29:43.756Z,45.35
2019-05-02T06:32:14.048Z,47.60
2019-05-02T06:34:46.768Z,46.68
2019-05-02T06:37:15.493Z,46.77
2019-05-02T06:39:44.385Z,45.33
2019-05-02T06:42:12.820Z,46.35
2019-05-02T06:44:41.272Z,46.50
2019-05-02T06:47:09.700Z,48.23
2019-05-02T06:49:38.133Z,45.75
2019-05-02T06:52:06.576Z,47.62
2019-05-02T06:54:35.397Z,46.60
2019-05-02T06:57:03.904Z,46.35
2019-05-02T06:59:32.332Z,48.02
2019-05-02T07:02:00.771Z,45.38
2019-05-02T07:04:29.540Z,44.88
2019-05-02T07:06:59.512Z,45.15
2019-05-02T07:09:39.888Z,45.17
2019-05-02T07:12:01.383Z,45.90
2019-05-02T07:14:28.784Z,44.20
2019-05-02T07:17:15.087Z,43.40
2019-05-02T07:19:48.076Z,44.63
2019-05-02T07:22:16.776Z,41.05
2019-05-02T07:24:45.568Z,40.95
2019-05-02T07:27:14.258Z,40.12
2019-05-02T07:29:42.681Z,40.58
2019-05-02T07:32:11.870Z,39.38
2019-05-02T07:34:50.311Z,39.25
2019-05-02T07:37:18.766Z,39.98
2019-05-02T07:39:47.537Z,38.33
2019-05-02T07:42:16.051Z,37.78
2019-05-02T07:44:45.479Z,37.10
2019-05-02T07:47:14.235Z,36.40
2019-05-02T07:49:43.014Z,36.08
2019-05-02T07:52:11.801Z,36.40
2019-05-02T07:54:40.593Z,36.30
2019-05-02T07:57:09.083Z,35.52
2019-05-02T07:59:37.624Z,35.23
2019-05-02T08:02:06.080Z,34.35
2019-05-02T08:04:35.403Z,35.90
2019-05-02T08:07:04.815Z,35.30
2019-05-02T08:09:33.414Z,35.80
2019-05-02T08:12:02.007Z,35.38
2019-05-02T08:14:34.511Z,34.50
2019-05-02T08:17:05.816Z,34.27
2019-05-02T08:19:31.027Z,35.88
2019-05-02T08:21:59.468Z,34.50
2019-05-02T08:24:33.113Z,34.60
2019-05-02T08:27:06.978Z,34.23
2019-05-02T08:29:37.047Z,34.50
2019-05-02T08:32:44.564Z,35.58
2019-05-02T08:35:12.998Z,35.98
2019-05-02T08:37:43.080Z,35.55
2019-05-02T08:40:12.161Z,37.17
2019-05-02T08:42:41.064Z,37.15
2019-05-02T08:45:09.927Z,37.60
2019-05-02T08:47:38.373Z,38.85
2019-05-02T08:50:08.342Z,37.70
2019-05-02T08:52:41.639Z,40.65
2019-05-02T08:55:10.051Z,40.25
2019-05-02T08:57:39.440Z,39.38
2019-05-02T09:00:10.303Z,39.78
2019-05-02T09:02:41.777Z,39.58
2019-05-02T09:05:09.817Z,36.83
2019-05-02T09:07:39.392Z,39.63
2019-05-02T09:10:09.451Z,37.48
2019-05-02T09:12:43.664Z,38.33
2019-05-02T09:15:08.314Z,40.35
2019-05-02T09:17:38.957Z,38.75
2019-05-02T09:20:15.086Z,38.35
2019-05-02T09:22:38.147Z,39.38
2019-05-02T09:25:26.008Z,39.40
2019-05-02T09:27:56.684Z,38.40
2019-05-02T09:30:28.184Z,37.45
2019-05-02T09:33:02.769Z,39.35
2019-05-02T09:35:28.072Z,40.92
2019-05-02T09:37:57.431Z,42.53
2019-05-02T09:40:26.173Z,42.90
2019-05-02T09:42:59.995Z,41.20
2019-05-02T09:45:37.184Z,41.98
2019-05-02T09:48:07.203Z,41.53
2019-05-02T09:50:35.494Z,41.13
2019-05-02T09:53:05.533Z,40.95
2019-05-02T09:55:34.293Z,39.23
2019-05-02T09:58:02.883Z,40.15
2019-05-02T10:00:48.371Z,42.03
2019-05-02T10:03:17.429Z,43.13
2019-05-02T10:05:46.265Z,41.65
2019-05-02T10:08:14.845Z,40.88
2019-05-02T10:10:45.785Z,41.08
2019-05-02T10:13:14.872Z,43.65
2019-05-02T10:15:43.295Z,44.80
2019-05-02T10:18:14.583Z,41.00
2019-05-02T10:20:42.396Z,42.38
2019-05-02T10:23:19.698Z,41.70
2019-05-02T10:25:46.834Z,45.52
2019-05-02T10:28:15.228Z,42.43
2019-05-02T10:30:47.463Z,43.63
2019-05-02T10:33:14.197Z,42.55
2019-05-02T10:35:44.688Z,46.85
2019-05-02T10:38:15.127Z,46.42
2019-05-02T10:40:48.325Z,43.98
2019-05-02T10:43:15.502Z,43.25
2019-05-02T10:45:47.469Z,45.92
2019-05-02T10:48:25.835Z,43.85
2019-05-02T10:50:52.326Z,43.95
2019-05-02T10:53:21.930Z,42.95
2019-05-02T10:55:52.309Z,42.45
2019-05-02T10:58:25.817Z,43.95
2019-05-02T11:00:52.401Z,44.88
2019-05-02T11:03:25.542Z,43.78
2019-05-02T11:05:57.938Z,44.40
2019-05-02T11:08:26.152Z,43.83
2019-05-02T11:10:54.940Z,46.45
2019-05-02T11:13:27.316Z,44.85
2019-05-02T11:16:03.120Z,43.48
2019-05-02T11:18:52.608Z,43.92
2019-05-02T11:21:22.928Z,43.60
2019-05-02T11:23:52.559Z,41.98
2019-05-02T11:26:25.036Z,42.23
2019-05-02T11:28:53.796Z,39.95
2019-05-02T11:31:22.635Z,40.60
2019-05-02T11:33:52.694Z,40.15
2019-05-02T11:36:22.294Z,39.33
2019-05-02T11:39:00.387Z,41.00
2019-05-02T11:41:23.063Z,39.03
2019-05-02T11:43:54.054Z,39.73
2019-05-02T11:46:22.258Z,40.15
2019-05-02T11:48:56.366Z,39.08
2019-05-02T11:51:22.699Z,41.68
2019-05-02T11:53:52.758Z,37.90
2019-05-02T11:56:22.209Z,38.78
2019-05-02T11:58:52.886Z,37.40
2019-05-02T12:01:34.999Z,37.50
2019-05-02T12:03:52.731Z,36.77
2019-05-02T12:06:22.478Z,36.63
2019-05-02T12:08:52.615Z,35.68
2019-05-02T12:11:22.864Z,37.17
2019-05-02T12:13:56.617Z,37.45
2019-05-02T12:16:22.991Z,38.02
2019-05-02T12:18:53.800Z,38.58
2019-05-02T12:21:22.918Z,38.63
2019-05-02T12:23:52.978Z,38.05
2019-05-02T12:26:22.146Z,38.25
2019-05-02T12:28:52.682Z,38.60
2019-05-02T12:31:27.294Z,38.02
2019-05-02T12:33:57.100Z,40.33
2019-05-02T12:36:26.853Z,38.42
2019-05-02T12:38:55.291Z,38.15
2019-05-02T12:41:25.293Z,37.13
2019-05-02T12:43:54.259Z,39.10
2019-05-02T12:46:22.701Z,40.33
2019-05-02T12:48:51.950Z,41.77
2019-05-02T12:51:22.588Z,42.85
2019-05-02T12:53:52.800Z,42.35
2019-05-02T12:56:23.566Z,43.05
2019-05-02T12:58:53.234Z,40.40
2019-05-02T13:01:22.697Z,39.95
2019-05-02T13:03:56.979Z,40.25
2019-05-02T13:06:25.482Z,41.28
2019-05-02T13:08:54.309Z,41.77
2019-05-02T13:11:28.604Z,42.75
2019-05-02T13:13:57.056Z,39.48
2019-05-02T13:16:25.564Z,37.67
2019-05-02T13:18:57.146Z,39.90
2019-05-02T13:21:39.225Z,39.78
2019-05-02T13:24:07.419Z,39.27
2019-05-02T13:26:35.646Z,38.35
2019-05-02T13:29:05.373Z,39.58
2019-05-02T13:31:35.443Z,39.23
2019-05-02T13:34:06.560Z,38.98
2019-05-02T13:36:46.540Z,38.53
2019-05-02T13:39:25.096Z,37.93
2019-05-02T13:41:54.437Z,39.95
2019-05-02T13:44:25.672Z,39.15
2019-05-02T13:46:55.465Z,38.42
2019-05-02T13:49:23.896Z,39.42
2019-05-02T13:51:52.344Z,37.98
2019-05-02T13:54:22.963Z,40.00
2019-05-02T13:56:53.053Z,39.18
2019-05-02T13:59:22.450Z,38.08
2019-05-02T14:01:52.968Z,39.50
2019-05-02T14:04:23.172Z,39.45
2019-05-02T14:06:52.874Z,36.53
2019-05-02T14:09:26.460Z,37.78
2019-05-02T14:12:09.393Z,40.03
2019-05-02T14:14:37.828Z,40.55
2019-05-02T14:17:06.454Z,39.60
2019-05-02T14:19:35.146Z,38.88
2019-05-02T14:22:03.830Z,39.13
2019-05-02T14:24:32.639Z,38.67
2019-05-02T14:27:02.611Z,38.10
2019-05-02T14:29:32.986Z,37.35
2019-05-02T14:32:02.660Z,38.73
2019-05-02T14:34:39.048Z,37.10
2019-05-02T14:37:07.485Z,37.25
2019-05-02T14:39:35.984Z,35.13
2019-05-02T14:42:04.870Z,35.30
2019-05-02T14:45:01.263Z,37.10
2019-05-02T14:47:04.146Z,37.35
2019-05-02T14:49:32.580Z,36.15
2019-05-02T14:52:03.046Z,36.48
2019-05-02T14:54:32.453Z,36.40
2019-05-02T14:57:05.957Z,37.42
2019-05-02T14:59:34.652Z,38.55
2019-05-02T15:02:07.473Z,39.88
2019-05-02T15:04:38.130Z,39.50
2019-05-02T15:07:06.005Z,40.28
2019-05-02T15:09:36.125Z,42.53
2019-05-02T15:12:13.805Z,42.55
2019-05-02T15:14:35.660Z,42.83
2019-05-02T15:17:04.851Z,42.48
2019-05-02T15:19:33.581Z,43.65
2019-05-02T15:22:02.447Z,41.85
2019-05-02T15:24:33.276Z,42.67
2019-05-02T15:27:05.482Z,43.60
2019-05-02T15:29:32.181Z,43.85
2019-05-02T15:32:19.065Z,44.30
2019-05-02T15:35:05.806Z,44.45
2019-05-02T15:37:35.822Z,45.48
2019-05-02T15:42:36.741Z,46.88
2019-05-02T15:45:06.825Z,48.45
2019-05-02T15:47:37.079Z,45.78
2019-05-02T15:50:06.478Z,47.50
2019-05-02T15:52:36.556Z,45.98
2019-05-02T15:55:08.465Z,45.98
2019-05-02T15:57:42.978Z,48.23
2019-05-02T16:00:22.059Z,48.87
2019-05-02T16:02:45.156Z,50.05
2019-05-02T16:05:14.660Z,50.23
2019-05-02T16:07:46.569Z,50.48
2019-05-02T16:10:14.183Z,50.33
2019-05-02T16:12:44.251Z,52.67
2019-05-02T16:15:21.113Z,51.80
2019-05-02T16:17:43.748Z,52.23
2019-05-02T16:20:14.200Z,53.02
2019-05-02T16:22:46.159Z,51.30
2019-05-02T16:25:13.396Z,49.30
2019-05-02T16:27:45.844Z,49.50
2019-05-02T16:30:17.344Z,50.98
2019-05-02T16:32:53.382Z,47.08
2019-05-02T16:35:23.472Z,49.65
2019-05-02T16:37:56.034Z,46.23
2019-05-02T16:40:30.415Z,46.60
2019-05-02T16:42:53.440Z,45.15
2019-05-02T16:45:22.271Z,41.85
2019-05-02T16:47:58.792Z,40.95
2019-05-02T16:50:42.076Z,40.98
2019-05-02T16:53:11.660Z,38.98
2019-05-02T16:55:43.441Z,39.08
2019-05-02T16:58:11.848Z,37.48
2019-05-02T17:00:42.561Z,36.65
2019-05-02T17:03:12.554Z,37.70
2019-05-02T17:05:44.339Z,36.25
2019-05-02T17:08:19.944Z,35.25
2019-05-02T17:10:53.655Z,34.80
2019-05-02T17:13:21.710Z,32.80
2019-05-02T17:15:52.157Z,34.73
2019-05-02T17:18:22.801Z,33.42
2019-05-02T17:20:54.939Z,32.90
2019-05-02T17:23:22.280Z,33.40
2019-05-02T17:25:52.174Z,32.58
2019-05-02T17:28:22.341Z,31.07
2019-05-02T17:30:52.491Z,28.75
2019-05-02T17:33:21.740Z,27.32
2019-05-02T17:35:52.271Z,28.02
2019-05-02T17:38:24.996Z,27.10
2019-05-02T17:40:54.151Z,26.77
2019-05-02T17:43:22.536Z,26.50
2019-05-02T17:45:51.867Z,26.80
2019-05-02T17:48:20.381Z,26.17
2019-05-02T17:51:00.123Z,25.50
2019-05-02T17:53:33.597Z,26.17
2019-05-02T17:56:01.907Z,26.73
2019-05-02T17:58:31.796Z,26.07
2019-05-02T18:01:02.960Z,26.97
2019-05-02T18:03:35.178Z,25.72
2019-05-02T18:06:02.683Z,25.45
2019-05-02T18:08:32.298Z,27.10
2019-05-02T18:11:02.811Z,26.40
2019-05-02T18:13:33.766Z,27.82
2019-05-02T18:16:02.845Z,29.27
2019-05-02T18:18:31.993Z,29.45
2019-05-02T18:21:02.071Z,29.45
2019-05-02T18:23:32.261Z,29.00
2019-05-02T18:26:04.425Z,29.60
2019-05-02T18:28:31.380Z,30.17
2019-05-02T18:31:02.813Z,30.57
2019-05-02T18:33:36.080Z,29.30
2019-05-02T18:36:02.057Z,30.57
2019-05-02T18:38:32.445Z,29.25
2019-05-02T18:41:05.981Z,30.80
2019-05-02T18:43:31.580Z,31.68
2019-05-02T18:46:05.959Z,33.00
2019-05-02T18:48:31.818Z,32.25
2019-05-02T18:51:01.698Z,32.33
2019-05-02T18:53:32.597Z,31.97
2019-05-02T18:56:01.505Z,33.38
2019-05-02T18:58:31.927Z,33.45
2019-05-02T19:01:00.595Z,34.08
2019-05-02T19:03:29.312Z,38.00
2019-05-02T19:05:58.492Z,44.88
2019-05-02T19:08:31.678Z,38.30
2019-05-02T19:11:08.522Z,31.05
2019-05-02T19:13:30.689Z,31.07
2019-05-02T19:15:58.924Z,30.55
2019-05-02T19:18:27.364Z,27.50
2019-05-02T19:20:58.428Z,25.17
2019-05-02T19:23:26.869Z,24.92
2019-05-02T19:25:55.364Z,23.87
2019-05-02T19:28:29.015Z,24.57
2019-05-02T19:30:57.261Z,26.02
2019-05-02T19:33:26.458Z,26.40
2019-05-02T19:35:54.904Z,29.80
2019-05-02T19:38:26.301Z,33.73
2019-05-02T19:40:53.511Z,33.40
2019-05-02T19:43:23.046Z,33.45
2019-05-02T19:45:53.995Z,31.02
2019-05-02T19:48:22.700Z,31.75
2019-05-02T19:50:51.860Z,31.68
2019-05-02T19:53:22.936Z,37.08
2019-05-02T19:55:52.003Z,37.83
2019-05-02T19:58:20.958Z,35.80
2019-05-02T20:00:49.575Z,31.52
2019-05-02T20:03:21.578Z,31.97
2019-05-02T20:05:48.688Z,31.50
2019-05-02T20:08:21.424Z,30.65
2019-05-02T20:10:53.779Z,32.05
2019-05-02T20:13:20.409Z,30.57
2019-05-02T20:15:57.160Z,29.55
2019-05-02T20:18:28.218Z,31.57
2019-05-02T20:20:58.401Z,34.45
2019-05-02T20:23:31.825Z,28.15
2019-05-02T20:25:57.740Z,24.90
2019-05-02T20:28:26.165Z,21.17
2019-05-02T20:30:54.608Z,19.10
2019-05-02T20:33:23.031Z,16.12
2019-05-02T20:35:52.878Z,14.33
2019-05-02T20:38:21.992Z,12.65
2019-05-02T20:40:52.258Z,12.73
2019-05-02T20:43:22.456Z,10.90
2019-05-02T20:45:52.771Z,9.95
2019-05-02T20:48:22.795Z,8.13
2019-05-02T20:54:19.384Z,8.70
2019-05-02T20:56:48.121Z,7.37
2019-05-02T20:59:16.810Z,6.90
2019-05-02T21:01:45.230Z,6.97
2019-05-02T21:04:13.668Z,7.22
2019-05-02T21:06:44.181Z,6.78
2019-05-02T21:09:21.763Z,7.83
2019-05-02T21:11:52.581Z,7.55
2019-05-02T21:14:21.641Z,7.17
2019-05-02T21:16:51.436Z,7.47
2019-05-02T21:19:21.644Z,6.97
2019-05-02T21:21:52.492Z,7.00
2019-05-02T21:24:22.180Z,6.90
2019-05-02T21:26:52.510Z,6.55
2019-05-02T21:29:22.897Z,6.58
2019-05-02T21:31:51.963Z,6.58
2019-05-02T21:34:22.265Z,6.53
2019-05-02T21:36:51.879Z,6.03
2019-05-02T21:39:22.765Z,6.62
2019-05-02T21:41:51.673Z,7.28
2019-05-02T21:44:22.133Z,6.47
2019-05-02T21:46:51.848Z,7.22
2019-05-02T21:49:38.164Z,6.53
2019-05-02T21:52:24.459Z,6.95
2019-05-02T21:54:54.546Z,7.30
2019-05-02T21:57:22.972Z,7.37
2019-05-02T21:59:52.703Z,8.18
2019-05-02T22:02:22.588Z,8.15
2019-05-02T22:04:52.807Z,7.83
2019-05-02T22:07:21.873Z,8.08
2019-05-02T22:09:52.401Z,7.55
2019-05-02T22:12:22.562Z,8.45
2019-05-02T22:14:52.870Z,8.70
2019-05-02T22:17:21.697Z,8.05
2019-05-02T22:19:52.284Z,8.28
2019-05-02T22:22:22.693Z,8.38
2019-05-02T22:24:52.802Z,7.95
2019-05-02T22:27:21.769Z,8.43
2019-05-02T22:30:11.958Z,8.20
2019-05-02T22:32:40.391Z,7.45
2019-05-02T22:35:09.357Z,8.08
2019-05-02T22:37:39.444Z,8.30
2019-05-02T22:40:10.737Z,8.35
2019-05-02T22:42:39.192Z,8.33
2019-05-02T22:45:08.056Z,8.33
2019-05-02T22:47:36.508Z,8.13
2019-05-02T22:50:06.892Z,8.48
2019-05-02T22:52:35.841Z,8.50
2019-05-02T22:55:11.943Z,9.08
2019-05-02T22:57:42.086Z,8.20
2019-05-02T23:00:11.332Z,8.20
2019-05-02T23:02:41.793Z,8.23
2019-05-02T23:05:12.299Z,8.28
2019-05-02T23:07:41.903Z,8.23
2019-05-02T23:10:12.648Z,8.38
2019-05-02T23:12:42.402Z,7.50
2019-05-02T23:15:12.591Z,7.40
2019-05-02T23:17:42.800Z,8.03
2019-05-02T23:20:12.788Z,8.05
2019-05-02T23:22:41.860Z,8.25
2019-05-02T23:25:17.936Z,7.75
2019-05-02T23:27:54.138Z,8.95
2019-05-02T23:30:23.954Z,8.03
2019-05-02T23:32:52.444Z,8.48
2019-05-02T23:35:20.938Z,7.80
2019-05-02T23:37:49.376Z,8.53
2019-05-02T23:40:19.825Z,8.83
2019-05-02T23:42:49.180Z,8.60
2019-05-02T23:45:17.604Z,8.03
2019-05-02T23:47:46.312Z,8.83
2019-05-02T23:50:15.131Z,7.85
2019-05-02T23:52:43.893Z,9.45
2019-05-02T23:55:13.416Z,8.60
2019-05-02T23:57:42.175Z,8.80
